Time;durP1;ratioP1;P1;durP2;ratioP2;P2;SDS_P1;SDS_P2;PMS_P1;PMS_P2;Temp;Humidity;BMP_temperature;BMP_pressure;BME280_temperature;BME280_humidity;BME280_pressure;Samples;Min_cycle;Max_cycle;Signal;HPM_P1;HPM_P2
2022/06/16 00:01:53;;;;;;;5.53;4.97;;;;;;;;;;5053478;28;20049;-91
2022/06/16 00:04:22;;;;;;;5.88;5.20;;;;;;;;;;5053113;28;20076;-91
2022/06/16 00:06:49;;;;;;;10.73;4.85;;;;;;;;;;5053189;28;20103;-91
2022/06/16 00:09:18;;;;;;;6.40;5.45;;;;;;;;;;5035910;28;20059;-92
2022/06/16 00:11:45;;;;;;;6.72;5.32;;;;;;;;;;5035646;28;20552;-92
2022/06/16 00:14:12;;;;;;;6.90;4.72;;;;;;;;;;5052818;28;20076;-91
2022/06/16 00:16:39;;;;;;;6.03;4.93;;;;;;;;;;5036227;28;20049;-92
2022/06/16 00:19:06;;;;;;;7.35;5.10;;;;;;;;;;5039786;28;20619;-92
2022/06/16 00:21:33;;;;;;;7.18;5.13;;;;;;;;;;5039726;28;20080;-92
2022/06/16 00:24:01;;;;;;;5.78;5.13;;;;;;;;;;5039456;28;20053;-91
2022/06/16 00:26:28;;;;;;;6.18;4.70;;;;;;;;;;5039621;28;20149;-92
2022/06/16 00:28:56;;;;;;;9.05;5.70;;;;;;;;;;5039279;28;20049;-91
2022/06/16 00:31:27;;;;;;;5.60;5.10;;;;;;;;;;5040177;28;20467;-92
2022/06/16 00:33:54;;;;;;;9.82;5.90;;;;;;;;;;5039306;28;20048;-92
2022/06/16 00:36:21;;;;;;;7.68;5.97;;;;;;;;;;5056945;28;20091;-92
2022/06/16 00:38:48;;;;;;;6.15;5.65;;;;;;;;;;5039354;28;20136;-92
2022/06/16 00:41:16;;;;;;;5.70;5.30;;;;;;;;;;5039166;28;20048;-91
2022/06/16 00:43:43;;;;;;;5.72;5.18;;;;;;;;;;5038811;28;20085;-91
2022/06/16 00:46:14;;;;;;;7.15;5.95;;;;;;;;;;5039028;28;20045;-92
2022/06/16 00:48:44;;;;;;;6.90;5.85;;;;;;;;;;5039059;28;20049;-91
2022/06/16 00:51:17;;;;;;;6.43;5.82;;;;;;;;;;5039216;28;20133;-91
2022/06/16 00:53:46;;;;;;;11.52;6.38;;;;;;;;;;5038967;28;20552;-92
2022/06/16 00:56:16;;;;;;;7.85;6.38;;;;;;;;;;5038714;28;20055;-93
2022/06/16 00:58:45;;;;;;;6.70;6.10;;;;;;;;;;5056409;28;20045;-91
2022/06/16 01:01:13;;;;;;;8.85;6.82;;;;;;;;;;5038803;28;20115;-92
2022/06/16 01:06:27;;;;;;;8.73;5.88;;;;;;;;;;5056091;28;20084;-92
2022/06/16 01:09:11;;;;;;;6.40;5.60;;;;;;;;;;5056144;28;20136;-92
2022/06/16 01:14:30;;;;;;;9.13;5.93;;;;;;;;;;5056712;28;20099;-92
2022/06/16 01:17:00;;;;;;;6.63;5.65;;;;;;;;;;5038142;28;20588;-93
2022/06/16 01:19:37;;;;;;;8.07;6.15;;;;;;;;;;5056077;28;20041;-92
2022/06/16 01:22:09;;;;;;;10.45;6.22;;;;;;;;;;5038495;28;20147;-92
2022/06/16 01:24:43;;;;;;;8.93;6.32;;;;;;;;;;5038316;28;20044;-91
2022/06/16 01:27:31;;;;;;;7.72;6.35;;;;;;;;;;5038379;28;20091;-92
2022/06/16 01:30:08;;;;;;;7.57;6.10;;;;;;;;;;5037608;28;20045;-91
2022/06/16 01:32:38;;;;;;;6.18;5.57;;;;;;;;;;5038370;28;20111;-91
2022/06/16 01:35:17;;;;;;;8.35;6.18;;;;;;;;;;5055581;28;20060;-92
2022/06/16 01:37:44;;;;;;;6.68;6.05;;;;;;;;;;5037929;28;20092;-91
2022/06/16 01:40:14;;;;;;;7.57;5.85;;;;;;;;;;5055875;28;20152;-92
2022/06/16 01:43:00;;;;;;;8.38;6.30;;;;;;;;;;5055464;28;20080;-92
2022/06/16 01:45:46;;;;;;;6.22;5.78;;;;;;;;;;5055261;28;20235;-92
2022/06/16 01:48:14;;;;;;;6.28;5.78;;;;;;;;;;5038065;28;20128;-92
2022/06/16 01:50:51;;;;;;;8.10;5.72;;;;;;;;;;5037880;28;20136;-92
2022/06/16 01:53:22;;;;;;;8.48;6.05;;;;;;;;;;5038065;28;20057;-93
2022/06/16 01:55:52;;;;;;;6.43;5.72;;;;;;;;;;5055224;28;20053;-92
2022/06/16 01:58:25;;;;;;;6.00;5.43;;;;;;;;;;5037764;28;20140;-92
2022/06/16 02:00:54;;;;;;;6.80;6.00;;;;;;;;;;5037314;28;20060;-93
2022/06/16 02:03:24;;;;;;;9.05;5.50;;;;;;;;;;5055058;28;20048;-92
2022/06/16 02:06:06;;;;;;;6.45;5.90;;;;;;;;;;5037376;28;20074;-92
2022/06/16 02:08:36;;;;;;;6.35;5.75;;;;;;;;;;5054992;28;20124;-90
2022/06/16 02:11:33;;;;;;;6.80;6.13;;;;;;;;;;5054916;28;20202;-92
2022/06/16 02:14:19;;;;;;;6.50;5.97;;;;;;;;;;5017254;28;20127;-93
2022/06/16 02:16:47;;;;;;;5.95;5.47;;;;;;;;;;5037273;28;20055;-92
2022/06/16 02:19:17;;;;;;;6.10;5.50;;;;;;;;;;5037141;28;20411;-93
2022/06/16 02:21:46;;;;;;;6.25;5.75;;;;;;;;;;5037028;28;20143;-92
2022/06/16 02:24:14;;;;;;;6.18;5.65;;;;;;;;;;5037297;28;20045;-92
2022/06/16 02:26:42;;;;;;;7.05;5.85;;;;;;;;;;5037444;28;20409;-92
2022/06/16 02:29:33;;;;;;;7.65;5.63;;;;;;;;;;5039619;28;20089;-92
2022/06/16 02:32:26;;;;;;;7.05;5.88;;;;;;;;;;5037646;28;20055;-91
2022/06/16 02:35:12;;;;;;;6.68;6.07;;;;;;;;;;5036713;28;20091;-92
2022/06/16 02:37:58;;;;;;;8.38;5.85;;;;;;;;;;5036873;28;20049;-92
2022/06/16 02:40:34;;;;;;;6.60;5.40;;;;;;;;;;5035923;28;20087;-92
2022/06/16 02:43:20;;;;;;;6.60;5.95;;;;;;;;;;5054621;28;20091;-91
2022/06/16 02:45:50;;;;;;;8.45;5.75;;;;;;;;;;5036536;28;20580;-93
2022/06/16 02:48:21;;;;;;;6.43;5.82;;;;;;;;;;5054130;28;20504;-92
2022/06/16 02:50:55;;;;;;;7.68;5.70;;;;;;;;;;5036598;28;20489;-93
2022/06/16 02:53:38;;;;;;;6.32;5.60;;;;;;;;;;5054255;28;20132;-92
2022/06/16 02:56:10;;;;;;;8.40;6.20;;;;;;;;;;5036635;28;20128;-92
2022/06/16 02:58:39;;;;;;;6.70;6.00;;;;;;;;;;5054340;28;20051;-92
2022/06/16 03:01:06;;;;;;;6.78;6.13;;;;;;;;;;5036441;28;20131;-92
2022/06/16 03:03:34;;;;;;;6.45;5.95;;;;;;;;;;5036603;28;20111;-92
2022/06/16 03:06:01;;;;;;;8.48;6.05;;;;;;;;;;5036700;28;20604;-92
2022/06/16 03:08:30;;;;;;;6.75;5.93;;;;;;;;;;5054148;28;20076;-92
2022/06/16 03:10:58;;;;;;;6.68;5.93;;;;;;;;;;5036765;28;20405;-92
2022/06/16 03:13:27;;;;;;;6.50;5.80;;;;;;;;;;5036136;28;20049;-92
2022/06/16 03:15:55;;;;;;;6.40;5.90;;;;;;;;;;5036336;28;20523;-92
2022/06/16 03:18:23;;;;;;;7.05;6.43;;;;;;;;;;5036434;28;20049;-92
2022/06/16 03:20:50;;;;;;;7.40;6.07;;;;;;;;;;5036328;28;20120;-93
2022/06/16 03:23:18;;;;;;;11.68;6.40;;;;;;;;;;5036412;28;20055;-92
2022/06/16 03:25:46;;;;;;;7.22;6.30;;;;;;;;;;5036079;28;20053;-93
2022/06/16 03:28:14;;;;;;;6.28;5.65;;;;;;;;;;5036135;28;20468;-93
2022/06/16 03:30:41;;;;;;;6.97;6.22;;;;;;;;;;5036029;28;20145;-92
2022/06/16 03:33:09;;;;;;;7.30;6.25;;;;;;;;;;5036088;28;20144;-93
2022/06/16 03:35:36;;;;;;;6.45;5.90;;;;;;;;;;5053208;28;20048;-93
2022/06/16 03:38:10;;;;;;;6.68;6.07;;;;;;;;;;5053263;28;20053;-93
2022/06/16 03:40:38;;;;;;;6.93;6.10;;;;;;;;;;5035864;28;20132;-93
2022/06/16 03:43:06;;;;;;;6.10;5.60;;;;;;;;;;5036307;28;20044;-92
2022/06/16 03:45:49;;;;;;;6.10;5.47;;;;;;;;;;5050896;28;20071;-93
2022/06/16 03:48:17;;;;;;;6.85;5.50;;;;;;;;;;5038485;28;20511;-92
2022/06/16 03:50:44;;;;;;;6.57;5.93;;;;;;;;;;5035573;28;20076;-92
2022/06/16 03:53:11;;;;;;;10.68;6.00;;;;;;;;;;5035497;28;20152;-92
2022/06/16 03:55:38;;;;;;;6.00;5.50;;;;;;;;;;5035588;28;20045;-93
2022/06/16 03:58:06;;;;;;;8.02;5.60;;;;;;;;;;5035856;28;20471;-93
2022/06/16 04:00:33;;;;;;;5.95;5.18;;;;;;;;;;5035574;28;20089;-93
2022/06/16 04:05:46;;;;;;;5.55;5.15;;;;;;;;;;5052799;28;20051;-93
2022/06/16 04:08:16;;;;;;;5.93;5.32;;;;;;;;;;5035754;28;20136;-93
2022/06/16 04:10:44;;;;;;;7.22;5.47;;;;;;;;;;5052925;28;20087;-93
2022/06/16 04:13:11;;;;;;;6.25;4.95;;;;;;;;;;5035627;28;20128;-94
2022/06/16 04:15:38;;;;;;;8.48;6.00;;;;;;;;;;5035377;28;20049;-94
2022/06/16 04:18:06;;;;;;;7.53;5.38;;;;;;;;;;5035301;28;20091;-93
2022/06/16 04:20:33;;;;;;;5.38;4.97;;;;;;;;;;5035622;28;20135;-93
2022/06/16 04:23:00;;;;;;;5.55;5.05;;;;;;;;;;5035748;28;20077;-92
2022/06/16 04:25:32;;;;;;;5.53;5.03;;;;;;;;;;5035741;28;20049;-93
2022/06/16 04:28:03;;;;;;;6.45;4.72;;;;;;;;;;5035743;28;20461;-93
2022/06/16 04:30:31;;;;;;;5.88;4.90;;;;;;;;;;5035521;28;20049;-91
2022/06/16 04:32:59;;;;;;;7.40;4.53;;;;;;;;;;5035272;28;20120;-93
2022/06/16 04:35:27;;;;;;;5.35;4.85;;;;;;;;;;5035548;28;20051;-93
2022/06/16 04:37:55;;;;;;;4.40;4.10;;;;;;;;;;5035058;28;20132;-92
2022/06/16 04:40:22;;;;;;;8.35;5.10;;;;;;;;;;5035501;28;20075;-92
2022/06/16 04:42:50;;;;;;;7.95;5.10;;;;;;;;;;5035509;28;20144;-91
2022/06/16 04:45:17;;;;;;;5.70;5.13;;;;;;;;;;5034732;28;20131;-90
2022/06/16 04:47:44;;;;;;;6.65;4.75;;;;;;;;;;5035453;28;20493;-91
2022/06/16 04:50:13;;;;;;;4.90;4.45;;;;;;;;;;5035441;28;20053;-89
2022/06/16 04:52:40;;;;;;;5.68;4.53;;;;;;;;;;5035226;28;20119;-90
2022/06/16 04:55:07;;;;;;;5.57;4.35;;;;;;;;;;5035285;28;20053;-90
2022/06/16 04:57:35;;;;;;;4.93;4.45;;;;;;;;;;5034669;28;20511;-91
2022/06/16 05:00:03;;;;;;;6.60;4.93;;;;;;;;;;5035072;28;20088;-90
2022/06/16 05:02:50;;;;;;;6.05;5.10;;;;;;;;;;5039662;28;20463;-90
2022/06/16 05:05:17;;;;;;;4.43;4.00;;;;;;;;;;5045024;28;20056;-90
2022/06/16 05:07:44;;;;;;;5.55;3.97;;;;;;;;;;5039379;28;20132;-90
2022/06/16 05:10:12;;;;;;;5.60;3.90;;;;;;;;;;5040584;28;20132;-90
2022/06/16 05:12:39;;;;;;;4.25;3.97;;;;;;;;;;5038434;28;20053;-90
2022/06/16 05:15:07;;;;;;;5.95;4.13;;;;;;;;;;5038716;28;20144;-90
2022/06/16 05:17:34;;;;;;;5.50;4.63;;;;;;;;;;5038332;28;20084;-90
2022/06/16 05:20:02;;;;;;;4.72;4.05;;;;;;;;;;5038773;28;20108;-91
2022/06/16 05:22:29;;;;;;;6.90;3.72;;;;;;;;;;5038432;28;20135;-91
2022/06/16 05:24:57;;;;;;;7.07;4.38;;;;;;;;;;5038369;28;20076;-90
2022/06/16 05:27:24;;;;;;;6.50;4.55;;;;;;;;;;5038724;28;20136;-90
2022/06/16 05:29:51;;;;;;;6.07;4.43;;;;;;;;;;5038377;28;20124;-89
2022/06/16 05:32:18;;;;;;;5.13;3.70;;;;;;;;;;5038409;28;20132;-90
2022/06/16 05:34:45;;;;;;;9.75;4.22;;;;;;;;;;5038108;28;20561;-88
2022/06/16 05:37:13;;;;;;;5.35;4.00;;;;;;;;;;5037929;28;20048;-91
2022/06/16 05:39:40;;;;;;;5.25;3.72;;;;;;;;;;5038187;28;20144;-91
2022/06/16 05:42:08;;;;;;;8.30;4.53;;;;;;;;;;5038320;28;20511;-91
2022/06/16 05:44:37;;;;;;;5.85;4.00;;;;;;;;;;5038363;28;20135;-91
2022/06/16 05:47:05;;;;;;;4.60;3.80;;;;;;;;;;5038078;28;20049;-91
2022/06/16 05:49:33;;;;;;;5.18;3.83;;;;;;;;;;5038142;28;20053;-90
2022/06/16 05:52:01;;;;;;;4.43;4.03;;;;;;;;;;5037860;28;20143;-90
2022/06/16 05:54:28;;;;;;;9.43;4.30;;;;;;;;;;5038045;28;20049;-90
2022/06/16 05:56:55;;;;;;;6.78;4.50;;;;;;;;;;5037869;28;20163;-89
2022/06/16 05:59:23;;;;;;;9.90;4.65;;;;;;;;;;5038157;28;20049;-91
2022/06/16 06:01:50;;;;;;;15.38;4.97;;;;;;;;;;5037537;28;20148;-90
2022/06/16 06:04:17;;;;;;;12.70;5.60;;;;;;;;;;5037679;28;20454;-90
2022/06/16 06:06:45;;;;;;;15.90;6.45;;;;;;;;;;5037367;28;20080;-90
2022/06/16 06:17:30;;;;;;;12.95;6.00;;;;;;;;;;5055729;28;20056;-90
2022/06/16 06:20:02;;;;;;;14.57;6.05;;;;;;;;;;5038805;28;20049;-89
2022/06/16 06:22:29;;;;;;;15.40;6.10;;;;;;;;;;5050337;28;20076;-88
2022/06/16 06:24:58;;;;;;;11.80;6.10;;;;;;;;;;5039734;28;20124;-90
2022/06/16 06:27:33;;;;;;;12.45;4.95;;;;;;;;;;5054664;28;20527;-90
2022/06/16 06:30:04;;;;;;;9.05;5.30;;;;;;;;;;5036599;28;20048;-90
2022/06/16 06:32:32;;;;;;;9.05;4.97;;;;;;;;;;5037445;28;20060;-89
2022/06/16 06:34:59;;;;;;;7.70;4.10;;;;;;;;;;5054718;28;20076;-90
2022/06/16 06:37:27;;;;;;;8.18;4.30;;;;;;;;;;5036838;28;20049;-91
2022/06/16 06:39:55;;;;;;;7.97;4.53;;;;;;;;;;5054397;28;20048;-90
2022/06/16 06:42:22;;;;;;;6.35;4.43;;;;;;;;;;5036845;28;20049;-90
2022/06/16 06:44:50;;;;;;;9.23;4.28;;;;;;;;;;5036660;28;20136;-91
2022/06/16 06:47:19;;;;;;;7.43;4.22;;;;;;;;;;5037201;28;20409;-93
2022/06/16 06:49:46;;;;;;;5.70;4.28;;;;;;;;;;5037172;28;20068;-90
2022/06/16 06:52:14;;;;;;;6.47;3.80;;;;;;;;;;5036973;28;20051;-90
2022/06/16 06:54:43;;;;;;;5.72;4.05;;;;;;;;;;5036850;28;20048;-92
2022/06/16 06:57:11;;;;;;;10.38;4.20;;;;;;;;;;5036554;28;20351;-90
2022/06/16 06:59:39;;;;;;;5.60;4.10;;;;;;;;;;5043886;28;20400;-91
2022/06/16 07:02:07;;;;;;;4.45;3.67;;;;;;;;;;5036920;28;20144;-90
2022/06/16 07:04:35;;;;;;;6.35;3.90;;;;;;;;;;5036804;28;20087;-91
2022/06/16 07:07:02;;;;;;;7.80;4.32;;;;;;;;;;5036951;28;20045;-90
2022/06/16 07:09:30;;;;;;;11.20;4.32;;;;;;;;;;5054218;28;20061;-93
2022/06/16 07:11:57;;;;;;;11.18;5.50;;;;;;;;;;5055794;28;20136;-93
2022/06/16 07:14:24;;;;;;;12.82;5.57;;;;;;;;;;5037130;28;20060;-96
2022/06/16 07:16:54;;;;;;;9.55;5.72;;;;;;;;;;5041926;28;20045;-95
2022/06/16 07:19:27;;;;;;;10.90;6.00;;;;;;;;;;5038458;28;20098;-93
2022/06/16 07:21:54;;;;;;;8.15;5.70;;;;;;;;;;5036294;28;20561;-93
2022/06/16 07:24:21;;;;;;;8.70;5.50;;;;;;;;;;5036157;28;20139;-92
2022/06/16 07:26:48;;;;;;;8.18;6.45;;;;;;;;;;5036164;28;20573;-93
2022/06/16 07:29:15;;;;;;;8.52;6.15;;;;;;;;;;5037438;28;20060;-92
2022/06/16 07:31:43;;;;;;;7.97;6.38;;;;;;;;;;5036587;28;20064;-93
2022/06/16 07:34:10;;;;;;;9.60;6.65;;;;;;;;;;5036650;28;20048;-92
2022/06/16 07:36:38;;;;;;;7.95;7.07;;;;;;;;;;5035927;28;20080;-92
2022/06/16 07:39:05;;;;;;;7.85;6.97;;;;;;;;;;5038482;28;20497;-91
2022/06/16 07:41:34;;;;;;;9.32;7.45;;;;;;;;;;5049910;28;20068;-90
2022/06/16 07:44:06;;;;;;;9.38;8.40;;;;;;;;;;5040177;28;20143;-90
2022/06/16 07:46:33;;;;;;;8.45;7.47;;;;;;;;;;5036315;28;20079;-90
2022/06/16 07:49:00;;;;;;;8.25;7.10;;;;;;;;;;5036017;28;20075;-91
2022/06/16 07:51:28;;;;;;;10.52;6.50;;;;;;;;;;5036090;28;20140;-90
2022/06/16 07:53:55;;;;;;;13.18;6.10;;;;;;;;;;5035977;28;20045;-89
2022/06/16 07:56:22;;;;;;;6.72;6.03;;;;;;;;;;5036024;28;20134;-89
2022/06/16 07:58:49;;;;;;;6.63;5.93;;;;;;;;;;5036074;28;20148;-89
2022/06/16 08:01:17;;;;;;;8.55;5.30;;;;;;;;;;5035902;28;20076;-90
2022/06/16 08:03:44;;;;;;;11.13;5.50;;;;;;;;;;5035630;28;20077;-90
2022/06/16 08:06:13;;;;;;;7.78;4.95;;;;;;;;;;5036127;28;20056;-91
2022/06/16 08:08:40;;;;;;;6.40;5.05;;;;;;;;;;5036082;28;20136;-92
2022/06/16 08:12:03;;;;;;;9.15;5.65;;;;;;;;;;5035947;28;20095;-91
2022/06/16 08:13:58;;;;;;;11.55;5.72;;;;;;;;;;5053220;28;20053;-91
2022/06/16 08:16:26;;;;;;;9.00;5.20;;;;;;;;;;5037306;28;20136;-92
2022/06/16 08:18:53;;;;;;;7.25;4.55;;;;;;;;;;5036106;28;20071;-91
2022/06/16 08:21:20;;;;;;;8.15;4.63;;;;;;;;;;5035937;28;20131;-88
2022/06/16 08:23:47;;;;;;;9.55;4.25;;;;;;;;;;5035843;28;20056;-89
2022/06/16 08:26:15;;;;;;;6.97;4.78;;;;;;;;;;5036675;28;20076;-89
2022/06/16 08:28:43;;;;;;;4.57;3.63;;;;;;;;;;5036566;28;20057;-89
2022/06/16 08:31:10;;;;;;;4.43;3.95;;;;;;;;;;5036600;28;20059;-88
2022/06/16 08:33:37;;;;;;;11.48;4.85;;;;;;;;;;5036123;28;20565;-91
2022/06/16 08:36:05;;;;;;;4.43;4.05;;;;;;;;;;5036097;28;20516;-89
2022/06/16 08:38:32;;;;;;;7.80;4.10;;;;;;;;;;5038239;28;20044;-92
2022/06/16 08:41:12;;;;;;;4.82;3.80;;;;;;;;;;5040360;28;20080;-91
2022/06/16 08:43:41;;;;;;;6.38;2.90;;;;;;;;;;5040033;28;20052;-89
2022/06/16 08:46:09;;;;;;;3.03;2.80;;;;;;;;;;5040053;28;20049;-89
2022/06/16 08:48:46;;;;;;;2.97;2.67;;;;;;;;;;5040147;28;20467;-89
2022/06/16 08:51:33;;;;;;;2.58;2.17;;;;;;;;;;5040564;28;20087;-90
2022/06/16 08:54:24;;;;;;;9.77;3.45;;;;;;;;;;5039311;28;20128;-88
2022/06/16 08:56:59;;;;;;;4.68;3.05;;;;;;;;;;5041187;28;20112;-89
2022/06/16 08:59:50;;;;;;;4.57;2.60;;;;;;;;;;5045322;28;20056;-88
2022/06/16 09:02:26;;;;;;;8.10;2.75;;;;;;;;;;5042490;28;20049;-93
2022/06/16 09:05:11;;;;;;;5.50;2.83;;;;;;;;;;5041647;28;20504;-92
2022/06/16 09:07:39;;;;;;;5.53;2.28;;;;;;;;;;5039132;28;20386;-89
2022/06/16 09:10:23;;;;;;;3.85;2.55;;;;;;;;;;5039060;28;20140;-87
2022/06/16 09:13:02;;;;;;;2.03;1.80;;;;;;;;;;5038824;28;20153;-88
2022/06/16 09:15:48;;;;;;;4.03;1.85;;;;;;;;;;5038638;28;20136;-86
2022/06/16 09:18:27;;;;;;;3.92;1.83;;;;;;;;;;5038744;28;20135;-86
2022/06/16 09:21:04;;;;;;;3.20;1.83;;;;;;;;;;5038585;28;20059;-89
2022/06/16 09:23:42;;;;;;;7.45;2.17;;;;;;;;;;5038495;28;20478;-93
2022/06/16 09:26:31;;;;;;;3.53;1.60;;;;;;;;;;5038792;28;20049;-84
2022/06/16 09:29:04;;;;;;;10.52;1.80;;;;;;;;;;5038629;28;20045;-85
2022/06/16 09:31:45;;;;;;;2.10;1.35;;;;;;;;;;5038171;28;20053;-86
2022/06/16 09:34:16;;;;;;;6.65;1.88;;;;;;;;;;5038358;28;20057;-87
2022/06/16 09:36:46;;;;;;;1.90;1.40;;;;;;;;;;5037872;28;20501;-84
2022/06/16 09:39:21;;;;;;;6.45;1.92;;;;;;;;;;5037877;28;20075;-88
2022/06/16 09:45:10;;;;;;;3.80;1.45;;;;;;;;;;5055794;28;20056;-91
2022/06/16 09:47:50;;;;;;;4.53;1.40;;;;;;;;;;5037952;28;20052;-87
2022/06/16 09:50:19;;;;;;;1.95;1.05;;;;;;;;;;5037338;28;20485;-91
2022/06/16 09:52:59;;;;;;;3.38;1.38;;;;;;;;;;5038102;28;20132;-87
2022/06/16 09:55:34;;;;;;;3.20;1.15;;;;;;;;;;5038102;28;20076;-95
2022/06/16 09:58:15;;;;;;;3.63;1.15;;;;;;;;;;5038309;28;20102;-89
2022/06/16 10:00:42;;;;;;;2.97;1.27;;;;;;;;;;5037669;28;20049;-89
2022/06/16 10:03:18;;;;;;;5.63;1.55;;;;;;;;;;5038929;28;20052;-89
2022/06/16 10:06:04;;;;;;;3.50;1.60;;;;;;;;;;5037694;28;20052;-86
2022/06/16 10:08:36;;;;;;;2.65;1.65;;;;;;;;;;5037276;28;20474;-84
2022/06/16 10:11:14;;;;;;;2.20;1.13;;;;;;;;;;5037282;28;20052;-85
2022/06/16 10:13:51;;;;;;;5.10;1.70;;;;;;;;;;5037477;28;20496;-84
2022/06/16 10:16:19;;;;;;;2.03;1.30;;;;;;;;;;5047413;28;20055;-89
2022/06/16 10:18:50;;;;;;;6.32;1.67;;;;;;;;;;5058653;28;20059;-89
2022/06/16 10:21:17;;;;;;;5.40;1.60;;;;;;;;;;5036851;28;20083;-86
2022/06/16 10:23:48;;;;;;;4.00;1.40;;;;;;;;;;5037080;28;20114;-86
2022/06/16 10:26:16;;;;;;;2.38;1.20;;;;;;;;;;5037510;28;20132;-86
2022/06/16 10:28:49;;;;;;;3.22;1.33;;;;;;;;;;5037306;28;20091;-86
2022/06/16 10:31:26;;;;;;;5.10;1.50;;;;;;;;;;5037479;28;20059;-87
2022/06/16 10:33:55;;;;;;;4.35;1.65;;;;;;;;;;5036864;28;20049;-84
2022/06/16 10:36:23;;;;;;;5.65;1.60;;;;;;;;;;5036908;28;20057;-85
2022/06/16 10:39:09;;;;;;;2.88;1.30;;;;;;;;;;5036561;28;20136;-85
2022/06/16 10:41:40;;;;;;;6.13;1.45;;;;;;;;;;5036773;28;20417;-84
2022/06/16 10:44:11;;;;;;;2.40;1.50;;;;;;;;;;5054068;28;20140;-90
2022/06/16 10:46:44;;;;;;;3.85;1.50;;;;;;;;;;5036341;28;20114;-84
2022/06/16 10:49:17;;;;;;;11.15;1.75;;;;;;;;;;5036951;28;20144;-84
2022/06/16 10:51:51;;;;;;;3.33;1.47;;;;;;;;;;5036398;28;20053;-85
2022/06/16 10:54:29;;;;;;;3.60;1.70;;;;;;;;;;5036381;28;20049;-83
2022/06/16 10:57:05;;;;;;;4.07;1.60;;;;;;;;;;5036416;28;20067;-87
2022/06/16 10:59:36;;;;;;;4.43;1.38;;;;;;;;;;5035946;28;20125;-85
2022/06/16 11:02:14;;;;;;;4.18;1.42;;;;;;;;;;5035754;28;20051;-87
2022/06/16 11:04:43;;;;;;;4.70;1.42;;;;;;;;;;5036126;28;20053;-86
2022/06/16 11:07:18;;;;;;;2.75;1.55;;;;;;;;;;5036905;28;20049;-84
2022/06/16 11:09:45;;;;;;;2.13;1.33;;;;;;;;;;5036398;28;20049;-86
2022/06/16 11:12:23;;;;;;;6.20;1.63;;;;;;;;;;5036348;28;20052;-86
2022/06/16 11:15:00;;;;;;;6.72;1.80;;;;;;;;;;5035654;28;20486;-86
2022/06/16 11:17:37;;;;;;;11.25;2.20;;;;;;;;;;5036257;28;20072;-88
2022/06/16 11:20:14;;;;;;;8.38;1.70;;;;;;;;;;5036265;28;20048;-86
2022/06/16 11:22:42;;;;;;;3.70;1.40;;;;;;;;;;5036203;28;20057;-85
2022/06/16 11:25:22;;;;;;;3.88;1.80;;;;;;;;;;5036574;28;20049;-87
2022/06/16 11:27:51;;;;;;;5.70;1.88;;;;;;;;;;5035961;28;20045;-86
2022/06/16 11:30:27;;;;;;;5.00;1.70;;;;;;;;;;5053380;28;20139;-85
2022/06/16 11:32:55;;;;;;;4.60;1.70;;;;;;;;;;5037194;28;20049;-84
2022/06/16 11:35:27;;;;;;;7.82;1.95;;;;;;;;;;5040022;28;20127;-86
2022/06/16 11:38:10;;;;;;;5.80;1.73;;;;;;;;;;5035745;28;20051;-83
2022/06/16 11:40:43;;;;;;;4.20;1.88;;;;;;;;;;5053133;28;20045;-85
2022/06/16 11:43:15;;;;;;;4.00;1.70;;;;;;;;;;5035828;28;20045;-86
2022/06/16 11:45:48;;;;;;;3.20;1.40;;;;;;;;;;5035079;28;20052;-85
2022/06/16 11:48:23;;;;;;;6.88;1.67;;;;;;;;;;5035582;28;20053;-83
2022/06/16 11:51:09;;;;;;;4.97;2.03;;;;;;;;;;5053032;28;20497;-85
2022/06/16 11:53:42;;;;;;;6.93;1.95;;;;;;;;;;5053564;28;20544;-89
2022/06/16 11:56:27;;;;;;;5.93;1.80;;;;;;;;;;5036243;28;20124;-87
2022/06/16 11:59:05;;;;;;;5.90;1.90;;;;;;;;;;5053684;28;20113;-90
2022/06/16 12:01:38;;;;;;;5.68;1.50;;;;;;;;;;5035476;28;20148;-88
2022/06/16 12:04:05;;;;;;;5.20;1.48;;;;;;;;;;5036212;28;20080;-88
2022/06/16 12:06:47;;;;;;;3.95;2.10;;;;;;;;;;5036904;28;20080;-85
2022/06/16 12:09:24;;;;;;;5.03;1.90;;;;;;;;;;5053089;28;20485;-87
2022/06/16 12:12:01;;;;;;;3.53;1.50;;;;;;;;;;5036736;28;20071;-87
2022/06/16 12:14:38;;;;;;;2.45;1.40;;;;;;;;;;5039985;28;20067;-84
2022/06/16 12:17:25;;;;;;;5.55;1.50;;;;;;;;;;5039376;28;20056;-84
2022/06/16 12:19:58;;;;;;;6.80;1.80;;;;;;;;;;5039138;28;20049;-86
2022/06/16 12:22:40;;;;;;;4.35;1.40;;;;;;;;;;5041747;28;20452;-84
2022/06/16 12:25:15;;;;;;;2.65;1.52;;;;;;;;;;5039558;28;20095;-89
2022/06/16 12:27:48;;;;;;;4.88;1.58;;;;;;;;;;5039737;28;20049;-92
2022/06/16 12:30:19;;;;;;;4.32;1.83;;;;;;;;;;5057395;28;20057;-84
2022/06/16 12:32:57;;;;;;;4.53;1.88;;;;;;;;;;5057857;28;20129;-86
2022/06/16 12:35:43;;;;;;;2.05;1.35;;;;;;;;;;5039682;28;20111;-85
2022/06/16 12:38:18;;;;;;;4.30;1.55;;;;;;;;;;5057322;28;20055;-85
2022/06/16 12:40:53;;;;;;;8.60;1.60;;;;;;;;;;5039167;28;20141;-85
2022/06/16 12:43:39;;;;;;;12.25;1.83;;;;;;;;;;5039984;28;20491;-92
2022/06/16 12:46:08;;;;;;;12.60;1.83;;;;;;;;;;5040127;28;20371;-88
2022/06/16 12:48:41;;;;;;;4.10;1.60;;;;;;;;;;5039601;28;20163;-83
2022/06/16 12:51:10;;;;;;;3.28;1.83;;;;;;;;;;5040866;28;20052;-86
2022/06/16 12:53:41;;;;;;;3.67;1.50;;;;;;;;;;5041578;28;20132;-87
2022/06/16 12:56:26;;;;;;;12.13;1.60;;;;;;;;;;5040425;28;20041;-87
2022/06/16 12:59:07;;;;;;;9.13;2.00;;;;;;;;;;5039063;28;20052;-86
2022/06/16 13:01:36;;;;;;;2.95;1.30;;;;;;;;;;5038423;28;20049;-85
2022/06/16 13:04:23;;;;;;;4.13;1.67;;;;;;;;;;5038579;28;20079;-84
2022/06/16 13:06:51;;;;;;;5.78;1.70;;;;;;;;;;5039188;28;20091;-94
2022/06/16 13:09:18;;;;;;;7.00;1.50;;;;;;;;;;5039425;28;20045;-86
2022/06/16 13:11:47;;;;;;;4.45;1.48;;;;;;;;;;5039055;28;20143;-88
2022/06/16 13:14:24;;;;;;;6.13;1.30;;;;;;;;;;5038530;28;20136;-86
2022/06/16 13:16:53;;;;;;;1.90;1.17;;;;;;;;;;5039225;28;20136;-88
2022/06/16 13:19:23;;;;;;;4.75;1.80;;;;;;;;;;5038652;28;20080;-88
2022/06/16 13:21:57;;;;;;;3.22;1.60;;;;;;;;;;5040145;28;20045;-91
2022/06/16 13:24:36;;;;;;;4.20;1.58;;;;;;;;;;5037505;28;20458;-89
2022/06/16 13:27:22;;;;;;;6.15;1.90;;;;;;;;;;5038576;28;20078;-84
2022/06/16 13:29:58;;;;;;;4.50;1.65;;;;;;;;;;5038739;28;20079;-91
2022/06/16 13:32:38;;;;;;;6.65;2.17;;;;;;;;;;5039604;28;20048;-93
2022/06/16 13:35:14;;;;;;;3.63;1.50;;;;;;;;;;5038607;28;20088;-93
2022/06/16 13:37:49;;;;;;;6.00;1.73;;;;;;;;;;5039516;28;20134;-89
2022/06/16 13:40:22;;;;;;;3.00;1.20;;;;;;;;;;5038654;28;20133;-91
2022/06/16 13:42:55;;;;;;;4.20;1.35;;;;;;;;;;5038777;28;20107;-85
2022/06/16 13:45:31;;;;;;;2.70;1.63;;;;;;;;;;5055651;28;20556;-89
2022/06/16 13:48:25;;;;;;;2.53;1.50;;;;;;;;;;5038338;28;20083;-86
2022/06/16 13:50:54;;;;;;;5.07;1.25;;;;;;;;;;5038232;28;20152;-88
2022/06/16 13:53:23;;;;;;;3.85;1.52;;;;;;;;;;5039048;28;20080;-90
2022/06/16 13:55:55;;;;;;;2.13;1.50;;;;;;;;;;5039231;28;20520;-94
2022/06/16 13:58:29;;;;;;;1.92;1.30;;;;;;;;;;5040894;28;20055;-87
2022/06/16 14:01:14;;;;;;;3.63;1.60;;;;;;;;;;5039518;28;20067;-94
2022/06/16 14:03:56;;;;;;;8.05;1.70;;;;;;;;;;5038964;28;20053;-87
2022/06/16 14:06:26;;;;;;;3.38;1.48;;;;;;;;;;5038391;28;20056;-86
2022/06/16 14:08:55;;;;;;;2.30;1.50;;;;;;;;;;5038714;28;20049;-90
2022/06/16 14:11:27;;;;;;;2.75;1.60;;;;;;;;;;5044836;28;20057;-88
2022/06/16 14:14:12;;;;;;;4.55;1.80;;;;;;;;;;5039921;28;20068;-86
2022/06/16 14:16:41;;;;;;;5.88;1.80;;;;;;;;;;5037741;28;20130;-88
2022/06/16 14:19:15;;;;;;;5.18;1.75;;;;;;;;;;5039364;28;20053;-90
2022/06/16 14:21:46;;;;;;;3.50;1.55;;;;;;;;;;5038377;28;20056;-92
2022/06/16 14:24:24;;;;;;;6.18;1.40;;;;;;;;;;5037767;28;20083;-89
2022/06/16 14:27:00;;;;;;;4.28;1.48;;;;;;;;;;5039522;28;20131;-87
2022/06/16 14:29:28;;;;;;;4.05;1.70;;;;;;;;;;5037958;28;20134;-90
2022/06/16 14:32:12;;;;;;;5.10;1.40;;;;;;;;;;5038940;28;20127;-92
2022/06/16 14:34:44;;;;;;;5.60;1.90;;;;;;;;;;5039746;28;20069;-89
2022/06/16 14:37:15;;;;;;;4.25;1.48;;;;;;;;;;5039195;28;20069;-91
2022/06/16 14:39:50;;;;;;;5.55;1.40;;;;;;;;;;5038901;28;20080;-91
2022/06/16 14:42:19;;;;;;;2.67;1.50;;;;;;;;;;5038668;28;20049;-88
2022/06/16 14:44:53;;;;;;;3.50;1.40;;;;;;;;;;5037729;28;20460;-91
2022/06/16 14:47:32;;;;;;;6.30;1.60;;;;;;;;;;5037678;28;20056;-90
2022/06/16 14:50:08;;;;;;;2.88;1.20;;;;;;;;;;5038753;28;20136;-85
2022/06/16 14:52:38;;;;;;;3.70;1.80;;;;;;;;;;5038280;28;20132;-93
2022/06/16 14:55:11;;;;;;;2.17;1.40;;;;;;;;;;5038415;28;20053;-88
2022/06/16 14:57:44;;;;;;;4.05;1.50;;;;;;;;;;5037166;28;20136;-88
2022/06/16 15:00:23;;;;;;;4.53;1.60;;;;;;;;;;5036508;28;20057;-95
2022/06/16 15:02:53;;;;;;;6.10;1.70;;;;;;;;;;5037992;28;20049;-90
2022/06/16 15:05:20;;;;;;;1.45;1.27;;;;;;;;;;5037901;28;20113;-91
2022/06/16 15:07:49;;;;;;;4.90;1.17;;;;;;;;;;5037768;28;20075;-94
2022/06/16 15:10:17;;;;;;;3.60;1.10;;;;;;;;;;5037204;28;20493;-87
2022/06/16 15:12:45;;;;;;;8.82;1.30;;;;;;;;;;5036889;28;20049;-87
2022/06/16 15:15:17;;;;;;;6.75;1.48;;;;;;;;;;5036285;28;20049;-88
2022/06/16 15:20:38;;;;;;;5.35;1.30;;;;;;;;;;5057483;28;20065;-96
2022/06/16 15:23:07;;;;;;;2.78;1.25;;;;;;;;;;5036906;28;20068;-92
2022/06/16 15:25:38;;;;;;;2.30;1.50;;;;;;;;;;5038516;28;20501;-89
2022/06/16 15:28:23;;;;;;;5.05;1.42;;;;;;;;;;5046252;28;20052;-93
2022/06/16 15:30:52;;;;;;;4.53;1.60;;;;;;;;;;5047103;28;20123;-94
2022/06/16 15:36:10;;;;;;;4.38;1.30;;;;;;;;;;5054325;28;20096;-93
2022/06/16 15:38:39;;;;;;;3.75;1.60;;;;;;;;;;5037313;28;20049;-89